createdAt,value
2022-10-25T00:01:30.588Z,101056.34
2022-10-25T00:03:58.307Z,101062.50
2022-10-25T00:06:26.772Z,101068.66
2022-10-25T00:08:53.988Z,101067.56
2022-10-25T00:11:31.298Z,101068.91
2022-10-25T00:14:02.203Z,101068.81
2022-10-25T00:16:34.603Z,101070.28
2022-10-25T00:19:01.664Z,101059.56
2022-10-25T00:21:28.675Z,101055.88
2022-10-25T00:23:55.727Z,101062.03
2022-10-25T00:26:22.811Z,101063.00
2022-10-25T00:28:54.947Z,101063.94
2022-10-25T00:31:23.757Z,101065.66
2022-10-25T00:33:50.896Z,101067.28
2022-10-25T00:36:21.564Z,101072.38
2022-10-25T00:38:48.923Z,101073.13
2022-10-25T00:41:22.248Z,101078.25
2022-10-25T00:43:55.906Z,101080.81
2022-10-25T00:46:31.674Z,101083.31
2022-10-25T00:49:10.715Z,101092.00
2022-10-25T00:51:59.283Z,101084.91
2022-10-25T00:54:38.175Z,101090.00
2022-10-25T00:57:16.096Z,101090.91
2022-10-25T00:59:46.393Z,101088.28
2022-10-25T01:02:16.462Z,101091.13
2022-10-25T01:04:44.160Z,101096.59
2022-10-25T01:07:11.797Z,101096.84
2022-10-25T01:09:41.227Z,101103.28
2022-10-25T01:12:08.287Z,101101.63
2022-10-25T01:14:43.206Z,101103.38
2022-10-25T01:17:41.475Z,101097.16
2022-10-25T01:21:01.081Z,101098.06
2022-10-25T01:24:25.571Z,101099.88
2022-10-25T01:27:15.629Z,101091.97
2022-10-25T01:30:22.907Z,101095.72
2022-10-25T01:33:14.465Z,101096.81
2022-10-25T01:35:58.760Z,101099.66
2022-10-25T01:38:59.767Z,101106.69
2022-10-25T01:41:53.884Z,101106.69
2022-10-25T01:44:42.479Z,101110.19
2022-10-25T01:47:41.250Z,101105.63
2022-10-25T01:50:21.238Z,101105.38
2022-10-25T01:52:48.246Z,101106.94
2022-10-25T01:55:16.364Z,101106.75
2022-10-25T01:58:06.010Z,101112.69
2022-10-25T02:00:52.931Z,101112.59
2022-10-25T02:03:45.152Z,101115.03
2022-10-25T02:06:28.802Z,101114.03
2022-10-25T02:09:17.747Z,101120.97
2022-10-25T02:11:45.020Z,101125.34
2022-10-25T02:14:28.589Z,101124.25
2022-10-25T02:17:15.627Z,101116.22
2022-10-25T02:19:50.901Z,101122.38
2022-10-25T02:22:23.882Z,101117.94
2022-10-25T02:24:53.525Z,101120.44
2022-10-25T02:27:23.409Z,101120.41
2022-10-25T02:29:54.126Z,101124.78
2022-10-25T02:32:21.888Z,101120.34
2022-10-25T02:34:50.556Z,101122.94
2022-10-25T02:37:18.209Z,101129.94
2022-10-25T02:39:46.490Z,101130.75
2022-10-25T02:42:13.486Z,101143.09
2022-10-25T02:44:40.572Z,101133.41
2022-10-25T02:47:08.084Z,101142.16
2022-10-25T02:49:35.197Z,101140.38
2022-10-25T02:52:02.264Z,101144.81
2022-10-25T02:54:29.264Z,101138.59
2022-10-25T02:56:56.235Z,101136.00
2022-10-25T02:59:23.403Z,101143.16
2022-10-25T03:01:50.367Z,101141.34
2022-10-25T03:04:17.637Z,101144.94
2022-10-25T03:06:44.634Z,101148.56
2022-10-25T03:09:11.648Z,101147.66
2022-10-25T03:11:38.638Z,101156.44
2022-10-25T03:14:05.698Z,101148.56
2022-10-25T03:16:32.728Z,101153.88
2022-10-25T03:18:59.987Z,101157.41
2022-10-25T03:21:27.084Z,101155.72
2022-10-25T03:23:54.177Z,101155.78
2022-10-25T03:26:22.542Z,101155.78
2022-10-25T03:28:49.729Z,101160.22
2022-10-25T03:31:18.287Z,101161.28
2022-10-25T03:33:45.391Z,101174.53
2022-10-25T03:36:14.007Z,101180.81
2022-10-25T03:38:41.056Z,101182.84
2022-10-25T03:41:08.408Z,101183.19
2022-10-25T03:43:35.909Z,101186.97
2022-10-25T03:46:02.998Z,101185.53
2022-10-25T03:48:30.062Z,101184.16
2022-10-25T03:50:57.119Z,101200.16
2022-10-25T03:53:24.113Z,101200.22
2022-10-25T03:55:51.144Z,101209.00
2022-10-25T03:58:19.691Z,101201.97
2022-10-25T04:00:46.825Z,101214.38
2022-10-25T04:03:14.788Z,101214.38
2022-10-25T04:05:45.714Z,101207.38
2022-10-25T04:08:12.655Z,101214.59
2022-10-25T04:10:39.636Z,101208.63
2022-10-25T04:13:06.717Z,101217.66
2022-10-25T04:15:33.800Z,101221.31
2022-10-25T04:18:00.747Z,101215.38
2022-10-25T04:20:28.809Z,101218.16
2022-10-25T04:22:57.358Z,101220.06
2022-10-25T04:25:26.873Z,101227.19
2022-10-25T04:27:54.987Z,101226.44
2022-10-25T04:30:22.607Z,101224.75
2022-10-25T04:32:50.205Z,101223.13
2022-10-25T04:35:17.760Z,101224.16
2022-10-25T04:37:45.817Z,101226.16
2022-10-25T04:40:13.360Z,101229.75
2022-10-25T04:42:42.151Z,101223.75
2022-10-25T04:45:11.070Z,101225.63
2022-10-25T04:47:38.824Z,101235.44
2022-10-25T04:50:07.903Z,101238.19
2022-10-25T04:52:35.840Z,101231.22
2022-10-25T04:55:03.891Z,101238.28
2022-10-25T04:57:32.559Z,101236.38
2022-10-25T05:00:00.415Z,101236.31
2022-10-25T05:02:28.316Z,101239.78
2022-10-25T05:04:56.054Z,101250.34
2022-10-25T05:07:24.995Z,101244.25
2022-10-25T05:09:52.578Z,101250.50
2022-10-25T05:12:40.269Z,101245.28
2022-10-25T05:15:09.563Z,101246.84
2022-10-25T05:17:38.337Z,101242.41
2022-10-25T05:20:10.298Z,101256.53
2022-10-25T05:22:37.869Z,101255.63
2022-10-25T05:25:07.098Z,101260.03
2022-10-25T05:27:40.289Z,101258.22
2022-10-25T05:30:09.395Z,101254.78
2022-10-25T05:32:38.604Z,101249.50
2022-10-25T05:35:06.857Z,101252.09
2022-10-25T05:37:34.780Z,101268.03
2022-10-25T05:40:02.374Z,101264.47
2022-10-25T05:42:30.116Z,101268.03
2022-10-25T05:45:00.344Z,101283.88
2022-10-25T05:47:28.615Z,101287.47
2022-10-25T05:49:56.372Z,101290.09
2022-10-25T05:52:24.014Z,101291.03
2022-10-25T05:54:52.940Z,101290.22
2022-10-25T05:57:21.060Z,101291.13
2022-10-25T05:59:49.017Z,101285.84
2022-10-25T06:02:17.108Z,101295.53
2022-10-25T06:04:47.878Z,101288.50
2022-10-25T06:07:20.043Z,101297.34
2022-10-25T06:09:47.793Z,101296.56
2022-10-25T06:12:15.554Z,101300.19
2022-10-25T06:14:43.200Z,101308.16
2022-10-25T06:17:13.244Z,101305.50
2022-10-25T06:19:40.955Z,101303.84
2022-10-25T06:22:08.568Z,101306.38
2022-10-25T06:24:36.309Z,101315.94
2022-10-25T06:27:03.913Z,101322.97
2022-10-25T06:29:31.671Z,101325.53
2022-10-25T06:31:59.443Z,101332.50
2022-10-25T06:34:29.189Z,101330.66
2022-10-25T06:36:56.695Z,101347.25
2022-10-25T06:39:25.372Z,101343.53
2022-10-25T06:41:52.977Z,101343.41
2022-10-25T06:44:21.247Z,101349.47
2022-10-25T06:49:39.062Z,101347.31
2022-10-25T06:52:07.402Z,101353.28
2022-10-25T06:54:36.770Z,101360.09
2022-10-25T06:57:04.537Z,101360.84
2022-10-25T06:59:32.654Z,101365.09
2022-10-25T07:02:00.376Z,101367.50
2022-10-25T07:04:32.755Z,101370.91
2022-10-25T07:07:00.586Z,101376.22
2022-10-25T07:09:28.634Z,101380.66
2022-10-25T07:11:57.378Z,101374.50
2022-10-25T07:14:25.988Z,101390.50
2022-10-25T07:16:54.322Z,101380.00
2022-10-25T07:19:24.473Z,101387.16
2022-10-25T07:21:53.076Z,101383.56
2022-10-25T07:24:21.032Z,101380.09
2022-10-25T07:26:48.925Z,101381.97
2022-10-25T07:29:17.696Z,101384.63
2022-10-25T07:31:46.211Z,101386.34
2022-10-25T07:34:34.015Z,101383.69
2022-10-25T07:37:03.199Z,101388.81
2022-10-25T07:39:30.712Z,101397.56
2022-10-25T07:42:00.687Z,101399.19
2022-10-25T07:44:27.871Z,101400.84
2022-10-25T07:46:55.561Z,101399.78
2022-10-25T07:49:23.132Z,101397.84
2022-10-25T07:51:50.825Z,101409.28
2022-10-25T07:54:18.219Z,101403.00
2022-10-25T07:56:48.844Z,101417.81
2022-10-25T07:59:19.265Z,101408.72
2022-10-25T08:01:46.986Z,101416.44
2022-10-25T08:04:14.625Z,101407.50
2022-10-25T08:06:42.322Z,101409.16
2022-10-25T08:09:14.752Z,101406.16
2022-10-25T08:11:44.051Z,101416.44
2022-10-25T08:14:12.275Z,101413.63
2022-10-25T08:16:40.145Z,101419.59
2022-10-25T08:19:12.450Z,101428.03
2022-10-25T08:21:39.704Z,101437.41
2022-10-25T08:24:07.062Z,101436.22
2022-10-25T08:26:36.787Z,101432.25
2022-10-25T08:29:04.494Z,101438.81
2022-10-25T08:31:33.740Z,101437.72
2022-10-25T08:34:00.967Z,101445.47
2022-10-25T08:36:31.011Z,101442.72
2022-10-25T08:38:59.941Z,101439.03
2022-10-25T08:41:38.758Z,101444.22
2022-10-25T08:44:23.711Z,101443.28
2022-10-25T08:47:04.499Z,101433.41
2022-10-25T08:50:03.567Z,101441.97
2022-10-25T08:52:55.422Z,101440.41
2022-10-25T08:55:32.428Z,101454.19
2022-10-25T08:58:02.460Z,101448.00
2022-10-25T09:00:37.554Z,101447.72
2022-10-25T09:03:05.406Z,101450.97
2022-10-25T09:05:45.397Z,101445.19
2022-10-25T09:08:33.802Z,101451.91
2022-10-25T09:11:20.120Z,101458.81
2022-10-25T09:14:12.561Z,101456.94
2022-10-25T09:17:04.168Z,101466.59
2022-10-25T09:19:39.740Z,101472.06
2022-10-25T09:22:26.972Z,101474.81
2022-10-25T09:25:02.920Z,101472.09
2022-10-25T09:28:01.413Z,101480.06
2022-10-25T09:30:39.219Z,101483.59
2022-10-25T09:35:54.686Z,101491.38
2022-10-25T09:38:40.345Z,101494.84
2022-10-25T09:41:19.349Z,101499.91
2022-10-25T09:44:06.724Z,101494.28
2022-10-25T09:46:56.875Z,101491.56
2022-10-25T09:50:22.158Z,101490.91
2022-10-25T09:53:17.679Z,101488.34
2022-10-25T09:56:00.065Z,101500.03
2022-10-25T09:58:31.969Z,101493.75
2022-10-25T10:01:06.166Z,101505.78
2022-10-25T10:03:36.338Z,101503.53
2022-10-25T10:06:18.612Z,101497.00
2022-10-25T10:09:02.651Z,101497.03
2022-10-25T10:11:34.440Z,101501.16
2022-10-25T10:14:40.403Z,101498.38
2022-10-25T10:17:15.199Z,101505.75
2022-10-25T10:19:44.000Z,101507.88
2022-10-25T10:22:17.024Z,101517.63
2022-10-25T10:24:57.899Z,101519.28
2022-10-25T10:27:27.981Z,101517.13
2022-10-25T10:30:02.652Z,101516.91
2022-10-25T10:32:37.846Z,101528.25
2022-10-25T10:35:28.014Z,101530.63
2022-10-25T10:38:15.759Z,101522.78
2022-10-25T10:40:45.631Z,101529.94
2022-10-25T10:43:31.980Z,101533.56
2022-10-25T10:46:08.016Z,101531.75
2022-10-25T10:48:43.104Z,101529.91
2022-10-25T10:51:42.950Z,101525.09
2022-10-25T10:54:23.478Z,101531.84
2022-10-25T10:57:03.096Z,101530.91
2022-10-25T10:59:53.204Z,101541.66
2022-10-25T11:02:26.627Z,101533.94
2022-10-25T11:04:56.427Z,101530.44
2022-10-25T11:07:35.854Z,101536.34
2022-10-25T11:10:14.939Z,101539.44
2022-10-25T11:12:44.158Z,101538.91
2022-10-25T11:15:13.691Z,101542.78
2022-10-25T11:17:54.740Z,101544.50
2022-10-25T11:20:48.703Z,101541.75
2022-10-25T11:23:23.974Z,101545.22
2022-10-25T11:26:02.191Z,101543.34
2022-10-25T11:28:54.761Z,101539.66
2022-10-25T11:31:43.278Z,101540.25
2022-10-25T11:34:37.912Z,101534.84
2022-10-25T11:37:21.331Z,101537.28
2022-10-25T11:40:09.767Z,101532.97
2022-10-25T11:43:08.936Z,101536.13
2022-10-25T11:45:46.963Z,101540.19
2022-10-25T11:49:00.015Z,101536.81
2022-10-25T11:52:11.341Z,101553.31
2022-10-25T11:55:08.659Z,101540.53
2022-10-25T11:58:03.160Z,101541.78
2022-10-25T12:00:46.983Z,101534.31
2022-10-25T12:03:33.159Z,101533.16
2022-10-25T12:06:22.217Z,101535.09
2022-10-25T12:09:10.556Z,101533.84
2022-10-25T12:12:07.152Z,101532.88
2022-10-25T12:14:41.252Z,101526.56
2022-10-25T12:17:23.359Z,101534.22
2022-10-25T12:19:55.865Z,101537.63
2022-10-25T12:22:47.726Z,101532.47
2022-10-25T12:25:34.309Z,101535.34
2022-10-25T12:28:41.159Z,101535.06
2022-10-25T12:31:21.553Z,101529.03
2022-10-25T12:34:01.671Z,101522.41
2022-10-25T12:36:38.817Z,101525.25
2022-10-25T12:39:41.066Z,101531.88
2022-10-25T12:42:50.819Z,101532.81
2022-10-25T12:46:04.193Z,101532.47
2022-10-25T12:48:59.100Z,101533.97
2022-10-25T12:52:01.250Z,101531.09
2022-10-25T12:54:37.901Z,101532.81
2022-10-25T12:57:33.959Z,101531.66
2022-10-25T13:00:12.618Z,101526.84
2022-10-25T13:03:03.936Z,101524.34
2022-10-25T13:06:13.054Z,101521.22
2022-10-25T13:08:42.075Z,101519.94
2022-10-25T13:11:10.827Z,101515.56
2022-10-25T13:13:50.315Z,101519.78
2022-10-25T13:16:33.187Z,101523.88
2022-10-25T13:19:49.765Z,101524.47
2022-10-25T13:22:39.961Z,101530.72
2022-10-25T13:25:13.149Z,101521.75
2022-10-25T13:28:15.495Z,101530.00
2022-10-25T13:30:44.783Z,101526.06
2022-10-25T13:33:22.636Z,101520.31
2022-10-25T13:35:49.614Z,101520.03
2022-10-25T13:38:25.444Z,101519.16
2022-10-25T13:41:12.519Z,101522.50
2022-10-25T13:44:02.497Z,101525.63
2022-10-25T13:46:37.724Z,101517.41
2022-10-25T13:49:29.919Z,101511.53
2022-10-25T13:52:01.264Z,101514.84
2022-10-25T13:54:48.350Z,101511.88
2022-10-25T13:57:55.832Z,101521.31
2022-10-25T14:00:36.668Z,101513.84
2022-10-25T14:03:34.923Z,101513.69
2022-10-25T14:06:08.605Z,101513.69
2022-10-25T14:08:49.507Z,101505.47
2022-10-25T14:11:27.327Z,101507.91
2022-10-25T14:14:13.697Z,101510.47
2022-10-25T14:16:53.005Z,101506.03
2022-10-25T14:19:27.221Z,101506.66
2022-10-25T14:21:55.278Z,101497.84
2022-10-25T14:24:22.706Z,101508.31
2022-10-25T14:26:56.376Z,101497.47
2022-10-25T14:29:28.239Z,101500.84
2022-10-25T14:31:57.255Z,101494.56
2022-10-25T14:34:30.045Z,101499.91
2022-10-25T14:36:58.953Z,101502.75
2022-10-25T14:39:30.570Z,101505.41
2022-10-25T14:42:03.440Z,101498.88
2022-10-25T14:44:50.455Z,101493.41
2022-10-25T14:47:33.768Z,101495.13
2022-10-25T14:50:02.065Z,101496.06
2022-10-25T14:52:31.383Z,101479.94
2022-10-25T14:55:06.298Z,101484.69
2022-10-25T14:57:34.643Z,101483.84
2022-10-25T15:00:05.725Z,101480.78
2022-10-25T15:02:37.295Z,101482.59
2022-10-25T15:05:05.892Z,101481.66
2022-10-25T15:07:41.186Z,101478.25
2022-10-25T15:10:40.652Z,101481.84
2022-10-25T15:13:16.096Z,101487.81
2022-10-25T15:15:47.139Z,101477.19
2022-10-25T15:18:35.482Z,101489.47
2022-10-25T15:21:17.611Z,101479.47
2022-10-25T15:24:14.869Z,101473.94
2022-10-25T15:27:05.825Z,101472.69
2022-10-25T15:29:42.210Z,101459.69
2022-10-25T15:32:22.241Z,101465.28
2022-10-25T15:34:56.207Z,101455.94
2022-10-25T15:37:26.061Z,101457.94
2022-10-25T15:39:55.829Z,101460.94
2022-10-25T15:42:25.956Z,101465.75
2022-10-25T15:44:52.976Z,101467.19
2022-10-25T15:47:33.588Z,101469.31
2022-10-25T15:50:10.003Z,101471.59
2022-10-25T15:52:37.135Z,101481.63
2022-10-25T15:55:27.194Z,101477.50
2022-10-25T15:57:55.402Z,101468.19
2022-10-25T16:00:28.059Z,101477.38
2022-10-25T16:02:59.066Z,101477.78
2022-10-25T16:05:33.090Z,101474.63
2022-10-25T16:08:00.984Z,101471.41
2022-10-25T16:10:29.624Z,101466.56
2022-10-25T16:13:09.891Z,101458.03
2022-10-25T16:15:37.449Z,101459.28
2022-10-25T16:18:04.546Z,101453.44
2022-10-25T16:20:32.432Z,101460.84
2022-10-25T16:22:59.437Z,101464.69
2022-10-25T16:25:32.836Z,101460.59
2022-10-25T16:28:01.691Z,101466.31
2022-10-25T16:30:36.550Z,101469.19
2022-10-25T16:33:05.680Z,101459.81
2022-10-25T16:35:33.008Z,101460.94
2022-10-25T16:38:00.137Z,101465.63
2022-10-25T16:40:27.697Z,101465.94
2022-10-25T16:42:54.765Z,101473.25
2022-10-25T16:45:30.622Z,101478.75
2022-10-25T16:47:58.942Z,101479.97
2022-10-25T16:50:29.090Z,101478.41
2022-10-25T16:53:01.066Z,101483.06
2022-10-25T16:55:30.627Z,101485.94
2022-10-25T16:57:59.643Z,101479.03
2022-10-25T17:00:29.147Z,101491.50
2022-10-25T17:02:56.276Z,101483.78
2022-10-25T17:05:28.616Z,101483.94
2022-10-25T17:07:56.286Z,101478.84
2022-10-25T17:10:23.570Z,101481.66
2022-10-25T17:12:54.244Z,101475.63
2022-10-25T17:15:22.880Z,101479.34
2022-10-25T17:17:50.141Z,101476.00
2022-10-25T17:20:17.895Z,101469.97
2022-10-25T17:22:45.646Z,101472.84
2022-10-25T17:25:12.824Z,101472.06
2022-10-25T17:27:45.466Z,101470.38
2022-10-25T17:30:16.385Z,101465.25
2022-10-25T17:32:43.342Z,101472.41
2022-10-25T17:35:11.560Z,101466.44
2022-10-25T17:37:43.516Z,101464.00
2022-10-25T17:40:12.319Z,101465.91
2022-10-25T17:42:40.011Z,101466.13
2022-10-25T17:45:07.790Z,101466.34
2022-10-25T17:47:37.472Z,101463.06
2022-10-25T17:50:05.688Z,101455.41
2022-10-25T17:52:32.866Z,101458.28
2022-10-25T17:55:01.400Z,101459.31
2022-10-25T17:57:28.648Z,101464.69
2022-10-25T17:59:58.081Z,101471.00
2022-10-25T18:02:25.337Z,101471.97
2022-10-25T18:05:08.544Z,101466.00
2022-10-25T18:07:39.476Z,101469.59
2022-10-25T18:10:06.763Z,101461.78
2022-10-25T18:12:33.828Z,101466.31
2022-10-25T18:15:00.874Z,101465.53
2022-10-25T18:17:27.880Z,101471.78
2022-10-25T18:19:54.922Z,101466.69
2022-10-25T18:22:22.902Z,101465.03
2022-10-25T18:24:49.920Z,101465.16
2022-10-25T18:27:16.905Z,101467.06
2022-10-25T18:29:43.876Z,101467.19
2022-10-25T18:32:10.905Z,101466.38
2022-10-25T18:34:37.972Z,101469.09
2022-10-25T18:37:05.092Z,101473.59
2022-10-25T18:39:32.179Z,101478.94
2022-10-25T18:41:59.216Z,101479.00
2022-10-25T18:44:26.226Z,101464.19
2022-10-25T18:46:54.026Z,101476.59
2022-10-25T18:49:21.032Z,101468.78
2022-10-25T18:51:48.081Z,101469.81
2022-10-25T18:54:15.067Z,101472.53
2022-10-25T18:56:42.211Z,101472.63
2022-10-25T18:59:10.437Z,101471.84
2022-10-25T19:01:37.963Z,101458.81
2022-10-25T19:04:05.363Z,101457.13
2022-10-25T19:06:33.648Z,101457.22
2022-10-25T19:09:02.868Z,101447.56
2022-10-25T19:11:30.253Z,101452.03
2022-10-25T19:13:57.521Z,101444.16
2022-10-25T19:16:24.618Z,101445.06
2022-10-25T19:18:52.158Z,101439.78
2022-10-25T19:21:19.688Z,101440.72
2022-10-25T19:23:47.347Z,101432.88
2022-10-25T19:26:19.425Z,101437.31
2022-10-25T19:28:48.140Z,101434.78
2022-10-25T19:31:18.076Z,101436.63
2022-10-25T19:33:50.474Z,101434.94
2022-10-25T19:36:19.807Z,101438.53
2022-10-25T19:38:50.216Z,101432.47
2022-10-25T19:41:22.780Z,101436.94
2022-10-25T19:43:50.690Z,101431.78
2022-10-25T19:46:18.922Z,101428.31
2022-10-25T19:48:46.381Z,101429.31
2022-10-25T19:51:20.075Z,101432.00
2022-10-25T19:53:47.491Z,101429.50
2022-10-25T19:56:20.701Z,101433.09
2022-10-25T19:58:48.717Z,101437.53
2022-10-25T20:01:23.884Z,101434.00
2022-10-25T20:03:54.670Z,101432.25
2022-10-25T20:06:26.912Z,101429.63
2022-10-25T20:08:57.656Z,101429.72
2022-10-25T20:11:26.347Z,101423.59
2022-10-25T20:13:55.839Z,101429.81
2022-10-25T20:16:25.475Z,101434.31
2022-10-25T20:18:53.060Z,101420.31
2022-10-25T20:21:26.290Z,101426.50
2022-10-25T20:23:58.344Z,101423.91
2022-10-25T20:26:31.616Z,101426.63
2022-10-25T20:29:02.773Z,101421.41
2022-10-25T20:31:33.491Z,101423.25
2022-10-25T20:34:02.564Z,101424.16
2022-10-25T20:36:30.321Z,101418.03
2022-10-25T20:38:59.346Z,101418.94
2022-10-25T20:41:30.830Z,101420.72
2022-10-25T20:44:00.788Z,101418.19
2022-10-25T20:46:28.995Z,101413.75
2022-10-25T20:48:58.236Z,101419.91
2022-10-25T20:51:26.216Z,101418.19
2022-10-25T20:53:53.629Z,101423.50
2022-10-25T20:56:21.865Z,101422.66
2022-10-25T20:58:49.008Z,101417.38
2022-10-25T21:01:16.519Z,101421.81
2022-10-25T21:03:48.691Z,101409.53
2022-10-25T21:06:15.759Z,101410.44
2022-10-25T21:08:42.788Z,101412.25
2022-10-25T21:11:13.000Z,101408.69
2022-10-25T21:13:40.690Z,101399.09
2022-10-25T21:16:09.844Z,101399.97
2022-10-25T21:18:37.632Z,101404.41
2022-10-25T21:21:09.198Z,101407.03
2022-10-25T21:23:36.727Z,101405.34
2022-10-25T21:26:07.034Z,101392.25
2022-10-25T21:28:40.382Z,101390.47
2022-10-25T21:31:15.204Z,101384.34
2022-10-25T21:33:49.892Z,101387.88
2022-10-25T21:36:20.285Z,101387.06
2022-10-25T21:38:49.428Z,101386.19
2022-10-25T21:41:23.354Z,101389.72
2022-10-25T21:43:50.978Z,101390.69
2022-10-25T21:46:20.855Z,101392.44
2022-10-25T21:48:50.499Z,101395.09
2022-10-25T21:51:21.490Z,101392.50
2022-10-25T21:53:48.621Z,101393.41
2022-10-25T21:56:20.552Z,101393.41
2022-10-25T21:58:49.817Z,101382.91
2022-10-25T22:01:24.597Z,101384.66
2022-10-25T22:03:52.595Z,101389.94
2022-10-25T22:06:23.230Z,101385.53
2022-10-25T22:08:50.752Z,101384.66
2022-10-25T22:11:27.415Z,101386.41
2022-10-25T22:14:02.331Z,101391.69
2022-10-25T22:16:32.500Z,101384.66
2022-10-25T22:19:13.334Z,101381.16
2022-10-25T22:21:41.775Z,101380.31
2022-10-25T22:24:11.368Z,101380.31
2022-10-25T22:26:44.565Z,101382.03
2022-10-25T22:29:13.991Z,101384.72
2022-10-25T22:31:41.655Z,101384.72
2022-10-25T22:34:10.503Z,101388.25
2022-10-25T22:36:41.286Z,101392.63
2022-10-25T22:39:10.485Z,101385.66
2022-10-25T22:41:37.536Z,101384.81
2022-10-25T22:44:04.956Z,101386.59
2022-10-25T22:46:35.680Z,101390.06
2022-10-25T22:49:08.949Z,101398.88
2022-10-25T22:51:38.367Z,101379.63
2022-10-25T22:54:05.785Z,101378.78
2022-10-25T22:56:33.778Z,101375.25
2022-10-25T22:59:04.473Z,101374.41
2022-10-25T23:01:35.626Z,101376.97
2022-10-25T23:04:09.385Z,101369.13
2022-10-25T23:06:39.807Z,101378.78
2022-10-25T23:09:11.006Z,101370.84
2022-10-25T23:11:40.783Z,101376.94
2022-10-25T23:14:13.334Z,101365.53
2022-10-25T23:16:46.075Z,101374.28
2022-10-25T23:19:13.194Z,101365.47
2022-10-25T23:21:41.272Z,101368.06
2022-10-25T23:24:09.659Z,101371.50
2022-10-25T23:26:36.790Z,101365.34
2022-10-25T23:29:05.021Z,101371.41
2022-10-25T23:31:32.812Z,101361.72
2022-10-25T23:34:01.089Z,101367.00
2022-10-25T23:36:37.410Z,101362.56
2022-10-25T23:39:07.934Z,101354.63
2022-10-25T23:41:34.967Z,101365.13
2022-10-25T23:44:02.287Z,101361.53
2022-10-25T23:46:29.277Z,101357.13
2022-10-25T23:48:56.490Z,101347.47
2022-10-25T23:51:23.484Z,101343.91
2022-10-25T23:53:50.477Z,101343.00
2022-10-25T23:56:17.498Z,101346.44
2022-10-25T23:58:45.592Z,101341.09
